Flight Track Log - Related Links

Times and Time Zones

All times are in EDT time to prevent confusion due to time zone crossing. See the SWA158 flight status page for this flight to view local times or setup timezone preferences in your user account.

Time Position Orientation Groundspeed Altitude Reporting Facility
EDT Latitude Longitude Course Direction KTS MPH feet Rate Location/Type
Thu 11:55:31 AM 40.8075 -111.9619 353° North 162 186 5,100  Level Salt Lake Center
Thu 11:57:08 AM 40.9053 -111.9769 353° North 224 258 8,800 2,291 Climbing Salt Lake Center
Thu 11:58:16 AM 40.9483 -111.9228 44° Northeast 280 322 11,400 2,465 Climbing Salt Lake Center
Thu 11:59:17 AM 40.9036 -111.7936 115° Southeast 344 396 14,100 2,829 Climbing Salt Lake Center
Thu 12:00:19 PM 40.8611 -111.6747 115° Southeast 361 415 17,200 2,516 Climbing Salt Lake Center
Thu 12:01:21 PM 40.8258 -111.5447 110° East 381 438 19,300 2,226 Climbing Salt Lake Center
Thu 12:02:23 PM 40.7956 -111.4069 106° East 391 450 21,800 2,341 Climbing Salt Lake Center
Thu 12:03:24 PM 40.7633 -111.2636 106° East 406 467 24,100 2,439 Climbing Salt Lake Center
Thu 12:04:26 PM 40.7239 -111.0881 106° East 415 478 26,800 1,984 Climbing Salt Lake Center
Thu 12:05:28 PM 40.6886 -110.9367 107° East 426 490 28,200 1,415 Climbing Salt Lake Center
Thu 12:06:29 PM 40.6522 -110.7792 107° East 445 512 29,700 1,463 Climbing Salt Lake Center
Thu 12:07:31 PM 40.6139 -110.6194 107° East 456 525 31,200 1,839 Climbing Salt Lake Center
Thu 12:08:33 PM 40.5731 -110.4419 107° East 460 529 33,500 1,742 Climbing Salt Lake Center
Thu 12:09:35 PM 40.5375 -110.2908 107° East 454 522 34,800 1,171 Climbing Salt Lake Center
Thu 12:10:36 PM 40.5031 -110.1094 104° East 458 527 35,900 1,073 Climbing Salt Lake Center
Thu 12:11:38 PM 40.4731 -109.9533 104° East 459 528 37,000 532 Climbing Salt Lake Center
Thu 12:12:40 PM 40.4431 -109.7969 104° East 461 531 37,000  Level Salt Lake Center
Thu 12:13:41 PM 40.4078 -109.6156 104° East 460 529 37,000  Level Salt Lake Center
Thu 12:14:43 PM 40.3772 -109.4592 104° East 461 531 37,000  Level Salt Lake Center
Thu 12:15:45 PM 40.3411 -109.2756 104° East 464 534 37,000  Level Salt Lake Center
Thu 12:16:46 PM 40.3108 -109.1167 104° East 469 540 37,000  Level Salt Lake Center
Thu 12:17:24 PM 40.2900 -109.0083 104° East 467 537 37,000  Level Denver Center
Thu 12:18:26 PM 40.2575 -108.8492 105° East 471 542 37,000  Level Denver Center
Thu 12:18:50 PM 40.2419 -108.7717 105° East 472 543 37,000  Level Salt Lake Center
Thu 12:19:51 PM 40.2089 -108.6106 105° East 478 550 37,000  Level Salt Lake Center
Thu 12:20:29 PM 40.1867 -108.4992 105° East 478 550 37,000  Level Denver Center
Thu 12:21:31 PM 40.1475 -108.3089 105° East 481 554 37,000  Level Denver Center
Thu 12:22:33 PM 40.1125 -108.1467 106° East 482 555 37,000  Level Denver Center
Thu 12:23:35 PM 40.0794 -107.9844 105° East 480 552 37,000  Level Denver Center
Thu 12:24:36 PM 40.0611 -107.7944 97° East 474 545 37,000  Level Denver Center
Thu 12:25:38 PM 40.0553 -107.6331 93° East 465 535 37,000  Level Denver Center
Thu 12:26:40 PM 40.0475 -107.4417 93° East 471 542 37,000  Level Denver Center
Thu 12:27:42 PM 40.0403 -107.2797 93° East 469 540 37,000  Level Denver Center
Thu 12:28:44 PM 40.0333 -107.0914 93° East 467 537 37,000  Level Denver Center
Thu 12:29:45 PM 40.0253 -106.9286 94° East 467 537 37,000  Level Denver Center
Thu 12:30:47 PM 40.0175 -106.7653 94° East 472 543 37,000  Level Denver Center
Thu 12:31:49 PM 40.0081 -106.5753 94° East 471 542 37,000  Level Denver Center
Thu 12:32:51 PM 39.9989 -106.3894 94° East 474 545 37,000  Level Denver Center
Thu 12:33:53 PM 39.9903 -106.2167 94° East 474 545 37,000  Level Denver Center
Thu 12:34:55 PM 39.9797 -106.0442 95° East 473 544 37,000  Level Denver Center
Thu 12:35:57 PM 39.9708 -105.8711 94° East 473 544 37,000  Level Denver Center
Thu 12:36:58 PM 39.9617 -105.6961 94° East 479 551 37,000  Level Denver Center
Thu 12:38:00 PM 39.9511 -105.5222 94° East 473 544 37,000  Level Denver Center
Thu 12:39:02 PM 39.9419 -105.3492 94° East 471 542 37,000  Level Denver Center
Thu 12:40:16 PM 39.9267 -105.1197 95° East 471 542 37,000  Level Denver Center
Thu 12:41:18 PM 39.9147 -104.9442 95° East 479 551 37,000  Level Denver Center
Thu 12:42:20 PM 39.9039 -104.7739 95° East 462 532 37,000  Level Denver Center
Thu 12:43:22 PM 39.8969 -104.5975 93° East 484 557 37,000  Level Denver Center
Thu 12:44:24 PM 39.9122 -104.4225 83° East 478 550 37,000  Level Denver Center
Thu 12:45:26 PM 39.9278 -104.2461 83° East 480 552 37,000  Level Denver Center
Thu 12:46:27 PM 39.9447 -104.0733 83° East 482 555 37,000  Level Denver Center
Thu 12:47:29 PM 39.9600 -103.8994 83° East 476 548 37,000  Level Denver Center
Thu 12:48:31 PM 39.9750 -103.7281 83° East 478 550 37,000  Level Denver Center
Thu 12:49:33 PM 39.9897 -103.5575 84° East 472 543 37,000  Level Denver Center
Thu 12:50:35 PM 40.0031 -103.3825 84° East 479 551 37,000  Level Denver Center
Thu 12:51:37 PM 40.0200 -103.1792 84° East 480 552 37,000 49 Level Denver Center
Thu 12:52:38 PM 40.0369 -103.0031 83° East 484 557 37,100 341 Climbing Denver Center
Thu 12:53:40 PM 40.0497 -102.8214 85° East 495 570 37,700 871 Climbing Denver Center
Thu 12:54:42 PM 40.0636 -102.6389 84° East 500 575 38,900 629 Climbing Denver Center
Thu 12:55:44 PM 40.0800 -102.4728 83° East 488 562 39,000 48 Climbing Denver Center
Thu 12:56:46 PM 40.0928 -102.2756 85° East 488 562 39,000  Level Denver Center
Thu 12:57:48 PM 40.1064 -102.1072 84° East 488 562 39,000  Level Denver Center
Thu 12:58:50 PM 40.1186 -101.9122 85° East 484 557 39,000  Level Denver Center
Thu 12:59:52 PM 40.1300 -101.7444 85° East 485 558 39,000  Level Denver Center
Thu 01:00:54 PM 40.1444 -101.5458 85° East 494 568 39,000  Level Denver Center
Thu 01:01:55 PM 40.1553 -101.3767 85° East 489 563 39,000  Level Denver Center
Thu 01:02:57 PM 40.1678 -101.1792 85° East 489 563 39,000  Level Denver Center
Thu 01:03:59 PM 40.1781 -101.0117 85° East 486 559 39,000  Level Denver Center
Thu 01:05:01 PM 40.1908 -100.8131 85° East 492 566 39,000  Level Denver Center
Thu 01:06:03 PM 40.2008 -100.6433 86° East 493 567 39,000 -48 Level Denver Center
Thu 01:07:05 PM 40.2064 -100.4431 88° East 496 571 38,900  Descending Denver Center
Thu 01:08:07 PM 40.2089 -100.2733 89° East 493 567 39,000 48 Climbing Denver Center
Thu 01:09:09 PM 40.2119 -100.0717 89° East 497 572 39,000  Level Denver Center
Thu 01:10:10 PM 40.2144 -99.8981 89° East 499 574 39,000  Level Denver Center
Thu 01:11:12 PM 40.2156 -99.7247 89° East 495 570 39,000  Level Denver Center
Thu 01:12:14 PM 40.2183 -99.5439 89° East 498 573 39,000  Level Denver Center
Thu 01:13:16 PM 40.2197 -99.3278 89° East 497 572 39,000  Level Denver Center
Thu 01:14:18 PM 40.2214 -99.1486 89° East 495 570 39,000  Level Denver Center
Thu 01:15:20 PM 40.2217 -98.9678 90° East 498 573 39,000  Level Denver Center
Thu 01:15:59 PM 40.2225 -98.8608 89° East 496 571 39,000  Level Minneapolis Center
Thu 01:17:01 PM 40.2222 -98.6803 90° East 498 573 39,000  Level Minneapolis Center
Thu 01:18:03 PM 40.2406 -98.5014 82° East 501 577 39,000  Level Minneapolis Center
Thu 01:19:04 PM 40.2714 -98.2858 79° East 504 580 39,000  Level Minneapolis Center
Thu 01:20:06 PM 40.2969 -98.1067 79° East 502 578 39,000  Level Minneapolis Center
Thu 01:21:08 PM 40.3211 -97.9286 80° East 499 574 39,000  Level Minneapolis Center
Thu 01:22:10 PM 40.3456 -97.7492 80° East 501 577 39,000  Level Minneapolis Center
Thu 01:23:12 PM 40.3706 -97.5706 80° East 501 577 39,000  Level Minneapolis Center
Thu 01:24:13 PM 40.3936 -97.3900 80° East 502 578 39,000  Level Minneapolis Center
Thu 01:25:15 PM 40.4183 -97.2017 80° East 504 580 39,000  Level Minneapolis Center
Thu 01:26:17 PM 40.4428 -97.0206 80° East 506 582 39,000  Level Minneapolis Center
Thu 01:27:19 PM 40.4714 -96.8042 80° East 504 580 39,000  Level Minneapolis Center
Thu 01:28:21 PM 40.4942 -96.6222 81° East 506 582 39,000  Level Minneapolis Center
Thu 01:29:23 PM 40.5161 -96.4428 81° East 503 579 39,000  Level Minneapolis Center
Thu 01:30:24 PM 40.5389 -96.2631 80° East 502 578 39,000  Level Minneapolis Center
Thu 01:31:26 PM 40.5603 -96.0822 81° East 502 578 39,000  Level Minneapolis Center
Thu 01:32:28 PM 40.5819 -95.8983 81° East 510 587 39,000  Level Minneapolis Center
Thu 01:33:30 PM 40.6089 -95.6817 81° East 508 585 39,000  Level Minneapolis Center
Thu 01:34:32 PM 40.6303 -95.4997 81° East 505 581 39,000  Level Minneapolis Center
Thu 01:35:34 PM 40.6514 -95.3156 81° East 510 587 39,000  Level Minneapolis Center
Thu 01:36:36 PM 40.6733 -95.1333 81° East 509 586 39,000  Level Minneapolis Center
Thu 01:37:38 PM 40.6931 -94.9519 82° East 505 581 39,000  Level Minneapolis Center
Thu 01:38:39 PM 40.7125 -94.7708 82° East 502 578 39,000  Level Minneapolis Center
Thu 01:39:41 PM 40.7347 -94.5597 82° East 504 580 39,000  Level Minneapolis Center
Thu 01:40:43 PM 40.7544 -94.3789 82° East 503 579 39,000  Level Minneapolis Center
Thu 01:41:45 PM 40.7731 -94.1967 82° East 503 579 39,000  Level Minneapolis Center
Thu 01:42:47 PM 40.7931 -94.0153 82° East 504 580 39,000  Level Minneapolis Center
Thu 01:43:49 PM 40.8097 -93.8381 83° East 495 570 39,000  Level Minneapolis Center
Thu 01:44:51 PM 40.8306 -93.6239 83° East 493 567 39,000  Level Minneapolis Center
Thu 01:45:53 PM 40.8475 -93.4461 83° East 493 567 39,000  Level Minneapolis Center
Thu 01:46:55 PM 40.8650 -93.2653 83° East 496 571 39,000  Level Minneapolis Center
Thu 01:47:57 PM 40.8842 -93.0831 82° East 498 573 39,000  Level Minneapolis Center
Thu 01:48:58 PM 40.9011 -92.9025 83° East 498 573 39,000  Level Minneapolis Center
Thu 01:49:28 PM 40.9108 -92.7928 83° East 497 572 39,000  Level Chicago Center
Thu 01:50:29 PM 40.9278 -92.6125 83° East 495 570 39,000 -390 Level Chicago Center
Thu 01:51:31 PM 40.9433 -92.4339 83° East 491 565 38,200 -878 Descending Chicago Center
Thu 01:52:32 PM 40.9586 -92.2597 83° East 481 554 37,200 -927 Descending Chicago Center
Thu 01:53:34 PM 40.9739 -92.0872 83° East 475 547 36,300 -1,268 Descending Chicago Center
Thu 01:54:35 PM 40.9886 -91.9144 84° East 474 545 34,600 -1,512 Descending Chicago Center
Thu 01:55:37 PM 41.0014 -91.7458 84° East 466 536 33,200 -1,220 Descending Chicago Center
Thu 01:56:38 PM 41.0169 -91.5583 84° East 478 550 32,100 -585 Descending Chicago Center
Thu 01:57:40 PM 41.0314 -91.3828 84° East 481 554 32,000 -976 Descending Chicago Center
Thu 01:58:41 PM 41.0453 -91.2108 84° East 472 543 30,100 -1,918 Descending Chicago Center
Thu 01:59:42 PM 41.0581 -91.0419 84° East 461 531 28,100 -2,098 Descending Chicago Center
Thu 02:00:44 PM 41.0736 -90.8450 84° East 450 518 25,800 -2,000 Descending Chicago Center
Thu 02:01:45 PM 41.0847 -90.6844 85° East 440 506 24,000 -1,220 Descending Chicago Center
Thu 02:02:47 PM 41.0961 -90.5308 84° East 421 484 23,300 -780 Descending Chicago Center
Thu 02:03:48 PM 41.1075 -90.3736 84° East 426 490 22,400 -927 Descending Chicago Center
Thu 02:04:50 PM 41.1178 -90.2181 85° East 423 487 21,400 -927 Descending Chicago Center
Thu 02:05:51 PM 41.1278 -90.0731 85° East 396 456 20,500 -1,073 Descending Chicago Center
Thu 02:06:53 PM 41.1375 -89.9344 85° East 379 436 19,200 -1,610 Descending Chicago Center
Thu 02:07:54 PM 41.1464 -89.8006 85° East 366 421 17,200 -1,756 Descending Chicago Center
Thu 02:08:56 PM 41.1547 -89.6656 85° East 365 420 15,600 -1,113 Descending Chicago Center
Thu 02:09:58 PM 41.1553 -89.5386 90° East 351 404 14,900 -341 Descending Chicago Center
Thu 02:10:59 PM 41.0956 -89.4992 154° Southeast 250 288 14,900  Level Chicago Center
Thu 02:12:01 PM 41.0497 -89.5642 227° Southwest 210 242 14,900  Level Chicago Center
Thu 02:13:02 PM 41.0283 -89.6361 249° West 210 242 14,900  Level Chicago Center
Thu 02:14:04 PM 41.0061 -89.7028 246° West 200 230 14,900  Level Chicago Center
Thu 02:15:05 PM 40.9911 -89.7700 254° West 190 219 14,900  Level Chicago Center
Thu 02:16:07 PM 41.0342 -89.8272 315° West 253 291 14,900 -98 Level Chicago Center
Thu 02:17:08 PM 41.1106 -89.7531 36° Northeast 374 430 14,700 -585 Descending Chicago Center
Thu 02:18:10 PM 41.1247 -89.6128 82° East 384 442 13,700 -968 Descending Chicago Center
Thu 02:19:12 PM 41.1386 -89.4803 82° East 366 421 12,700 -1,366 Descending Chicago Center
Thu 02:20:13 PM 41.1539 -89.3281 82° East 350 403 10,900 -1,366 Descending Chicago Center
Thu 02:21:15 PM 41.1661 -89.2008 83° East 349 402 9,900 -683 Descending Chicago Center
Thu 02:22:16 PM 41.1828 -89.0781 80° East 336 387 9,500 -780 Descending Chicago Center
Thu 02:23:18 PM 41.2344 -88.9753 56° Northeast 335 386 8,300 -1,161 Descending Chicago Center
Thu 02:24:20 PM 41.2811 -88.8761 58° Northeast 324 373 7,100 -683 Descending Chicago Center
Thu 02:25:21 PM 41.3258 -88.7839 57° Northeast 306 352 6,900 -537 Descending Chicago Center
Thu 02:26:23 PM 41.3686 -88.6953 57° Northeast 292 336 6,000 -439 Descending Chicago Center
Thu 02:27:24 PM 41.4067 -88.6125 58° Northeast 279 321 6,000  Level Chicago Center
Thu 02:28:26 PM 41.4519 -88.5167 58° Northeast 264 304 6,000 -194 Level Chicago Center
Thu 02:29:28 PM 41.4900 -88.4356 58° Northeast 260 299 5,600 -780 Descending Chicago Center
Thu 02:30:29 PM 41.5289 -88.3539 58° Northeast 260 299 4,400 -1,171 Descending Chicago Center
Thu 02:31:31 PM 41.5864 -88.2878 41° Northeast 269 310 3,200 -878 Descending Chicago Center
Thu 02:32:32 PM 41.6456 -88.2278 37° Northeast 268 308 2,600 -341 Descending Chicago Center
Thu 02:33:34 PM 41.6897 -88.1675 46° Northeast 250 288 2,500 -48 Descending Chicago Center
Thu 02:34:36 PM 41.7322 -88.1100 45° Northeast 227 261 2,500  Level Chicago Center
Thu 02:35:37 PM 41.7758 -88.0531 44° Northeast 221 254 2,500  Level Chicago Center
Thu 02:36:39 PM 41.8183 -87.9933 46° Northeast 221 254 2,500  Level Chicago Center
Thu 02:37:41 PM 41.8708 -87.9228 45° Northeast 222 255 2,500 -55 Level Chicago Center
Thu 02:38:29 PM 41.8667 -87.8667 96° East 192 221 2,400 -333 Descending Chicago TRACON
Thu 02:39:29 PM 41.8333 -87.8167 132° Southeast 157 181 1,900 -650 Descending Chicago TRACON
Thu 02:40:29 PM 41.8000 -87.7833 143° Southeast 134 154 1,100 -800 Descending Chicago TRACON
Thu 02:42:00 PM 41.7833 -87.7500 86° East  Level FlightAware Approximate

Login

Don't have an account? Register now (free) for customized features, flight alerts, and more!